createdAt,value
2017-08-14T00:01:34.037Z,97.00
2017-08-14T00:04:01.616Z,96.90
2017-08-14T00:06:29.176Z,96.80
2017-08-14T00:08:56.729Z,96.70
2017-08-14T00:11:24.283Z,96.60
2017-08-14T00:13:51.812Z,96.60
2017-08-14T00:16:19.394Z,96.50
2017-08-14T00:18:46.942Z,96.50
2017-08-14T00:21:14.496Z,96.50
2017-08-14T00:23:42.302Z,96.50
2017-08-14T00:26:09.858Z,96.60
2017-08-14T00:28:37.378Z,96.70
2017-08-14T00:31:04.971Z,96.70
2017-08-14T00:33:32.561Z,96.70
2017-08-14T00:36:00.117Z,96.60
2017-08-14T00:38:27.718Z,96.70
2017-08-14T00:40:55.276Z,96.70
2017-08-14T00:43:22.846Z,96.70
2017-08-14T00:45:50.430Z,96.70
2017-08-14T00:48:18.017Z,96.70
2017-08-14T00:50:45.598Z,96.70
2017-08-14T00:53:13.193Z,96.80
2017-08-14T00:55:40.707Z,96.80
2017-08-14T00:58:08.291Z,96.70
2017-08-14T01:00:36.054Z,96.60
2017-08-14T01:03:03.622Z,96.60
2017-08-14T01:05:31.167Z,96.50
2017-08-14T01:07:58.729Z,96.50
2017-08-14T01:10:26.221Z,96.50
2017-08-14T01:12:53.745Z,96.60
2017-08-14T01:15:21.299Z,96.60
2017-08-14T01:17:48.868Z,96.60
2017-08-14T01:20:16.410Z,96.60
2017-08-14T01:22:43.979Z,96.60
2017-08-14T01:25:11.630Z,96.70
2017-08-14T01:27:39.156Z,96.60
2017-08-14T01:30:06.760Z,96.60
2017-08-14T01:32:34.325Z,96.70
2017-08-14T01:35:01.890Z,96.70
2017-08-14T01:37:30.181Z,96.80
2017-08-14T01:39:57.768Z,96.80
2017-08-14T01:42:25.339Z,96.80
2017-08-14T01:44:52.915Z,96.80
2017-08-14T01:47:20.404Z,96.70
2017-08-14T01:49:47.961Z,96.80
2017-08-14T01:52:15.549Z,96.80
2017-08-14T01:54:43.327Z,96.80
2017-08-14T01:57:10.977Z,96.70
2017-08-14T01:59:38.590Z,96.70
2017-08-14T02:02:06.149Z,96.70
2017-08-14T02:04:33.678Z,96.60
2017-08-14T02:07:01.406Z,96.60
2017-08-14T02:09:28.964Z,96.60
2017-08-14T02:11:56.555Z,96.70
2017-08-14T02:14:24.168Z,96.60
2017-08-14T02:16:51.716Z,96.60
2017-08-14T02:19:19.235Z,96.60
2017-08-14T02:21:46.861Z,96.70
2017-08-14T02:24:14.403Z,96.60
2017-08-14T02:26:41.983Z,96.60
2017-08-14T02:29:09.719Z,96.50
2017-08-14T02:31:38.404Z,96.60
2017-08-14T02:34:05.965Z,96.60
2017-08-14T02:36:33.549Z,96.50
2017-08-14T02:39:01.192Z,96.50
2017-08-14T02:41:28.757Z,96.40
2017-08-14T02:43:56.319Z,96.50
2017-08-14T02:46:23.881Z,96.50
2017-08-14T02:48:51.470Z,96.50
2017-08-14T02:51:19.224Z,96.50
2017-08-14T02:53:46.771Z,96.50
2017-08-14T02:56:14.345Z,96.50
2017-08-14T02:58:42.074Z,96.50
2017-08-14T03:01:09.570Z,97.10
2017-08-14T03:03:37.115Z,97.10
2017-08-14T03:06:04.758Z,97.10
2017-08-14T03:08:32.332Z,97.20
2017-08-14T03:10:59.892Z,97.20
2017-08-14T03:13:27.439Z,97.20
2017-08-14T03:15:55.028Z,97.00
2017-08-14T03:18:22.590Z,97.00
2017-08-14T03:20:50.123Z,97.00
2017-08-14T03:23:17.658Z,97.00
2017-08-14T03:25:45.201Z,97.00
2017-08-14T03:28:12.930Z,97.00
2017-08-14T03:30:40.492Z,96.90
2017-08-14T03:33:08.041Z,96.90
2017-08-14T03:35:35.703Z,96.90
2017-08-14T03:38:03.219Z,96.80
2017-08-14T03:40:30.829Z,96.80
2017-08-14T03:42:58.538Z,96.70
2017-08-14T03:45:26.088Z,96.70
2017-08-14T03:47:53.648Z,96.70
2017-08-14T03:50:21.216Z,96.30
2017-08-14T03:52:48.798Z,96.30
2017-08-14T03:55:16.305Z,96.40
2017-08-14T03:57:43.932Z,96.40
2017-08-14T04:00:11.558Z,96.30
2017-08-14T04:02:39.124Z,96.20
2017-08-14T04:05:06.708Z,96.30
2017-08-14T04:07:34.285Z,96.50
2017-08-14T04:10:01.841Z,96.80
2017-08-14T04:12:29.608Z,96.50
2017-08-14T04:14:57.173Z,95.20
2017-08-14T04:17:24.728Z,94.40
2017-08-14T04:19:52.323Z,93.70
2017-08-14T04:22:19.917Z,92.50
2017-08-14T04:24:47.495Z,89.30
2017-08-14T04:27:15.069Z,87.20
2017-08-14T04:29:42.614Z,81.80
2017-08-14T04:32:10.167Z,77.40
2017-08-14T04:34:37.755Z,75.10
2017-08-14T04:37:05.300Z,73.10
2017-08-14T04:39:32.836Z,70.40
2017-08-14T04:42:00.561Z,68.00
2017-08-14T04:44:28.104Z,65.00
2017-08-14T04:46:56.261Z,62.90
2017-08-14T04:49:24.070Z,61.20
2017-08-14T04:51:51.592Z,59.90
2017-08-14T04:54:19.184Z,57.80
2017-08-14T04:56:46.740Z,56.60
2017-08-14T04:59:14.307Z,55.60
2017-08-14T05:01:41.883Z,53.60
2017-08-14T05:04:09.649Z,52.80
2017-08-14T05:06:37.170Z,51.90
2017-08-14T05:09:05.445Z,51.40
2017-08-14T05:11:33.071Z,49.70
2017-08-14T05:14:00.661Z,48.50
2017-08-14T05:16:28.283Z,47.20
2017-08-14T05:18:55.865Z,46.50
2017-08-14T05:21:24.337Z,46.50
2017-08-14T05:23:51.887Z,44.90
2017-08-14T05:26:19.696Z,43.90
2017-08-14T05:28:47.362Z,43.10
2017-08-14T05:31:14.915Z,42.00
2017-08-14T05:33:42.658Z,41.20
2017-08-14T05:36:10.236Z,40.30
2017-08-14T05:38:37.823Z,40.00
2017-08-14T05:41:05.561Z,38.80
2017-08-14T05:43:33.130Z,38.10
2017-08-14T05:46:00.701Z,37.20
2017-08-14T05:48:28.342Z,37.50
2017-08-14T05:50:56.014Z,36.00
2017-08-14T05:53:23.750Z,35.50
2017-08-14T05:55:51.386Z,35.50
2017-08-14T05:58:18.986Z,35.90
2017-08-14T06:00:46.572Z,35.20
2017-08-14T06:03:14.216Z,34.50
2017-08-14T06:05:42.014Z,34.30
2017-08-14T06:08:09.602Z,33.90
2017-08-14T06:10:37.255Z,33.70
2017-08-14T06:13:04.899Z,33.00
2017-08-14T06:15:32.447Z,31.80
2017-08-14T06:18:00.014Z,30.70
2017-08-14T06:20:27.572Z,29.90
2017-08-14T06:22:55.159Z,29.00
2017-08-14T06:25:22.765Z,29.10
2017-08-14T06:27:50.355Z,29.10
2017-08-14T06:30:17.944Z,29.40
2017-08-14T06:32:45.526Z,28.70
2017-08-14T06:35:13.072Z,28.40
2017-08-14T06:37:40.600Z,27.10
2017-08-14T06:40:08.201Z,28.00
2017-08-14T06:42:35.703Z,28.70
2017-08-14T06:45:03.277Z,30.10
2017-08-14T06:47:31.068Z,30.00
2017-08-14T06:49:58.587Z,29.10
2017-08-14T06:52:26.120Z,28.50
2017-08-14T06:54:53.675Z,28.00
2017-08-14T06:57:21.249Z,27.40
2017-08-14T06:59:48.781Z,25.30
2017-08-14T07:02:16.386Z,24.90
2017-08-14T07:04:45.228Z,24.10
2017-08-14T07:07:12.985Z,23.50
2017-08-14T07:09:40.612Z,24.70
2017-08-14T07:12:08.149Z,24.90
2017-08-14T07:14:35.673Z,25.50
2017-08-14T07:17:03.276Z,24.70
2017-08-14T07:19:30.778Z,25.10
2017-08-14T07:21:58.297Z,25.90
2017-08-14T07:24:25.865Z,24.70
2017-08-14T07:26:53.402Z,24.00
2017-08-14T07:29:20.953Z,24.30
2017-08-14T07:31:48.524Z,25.10
2017-08-14T07:34:16.082Z,24.50
2017-08-14T07:36:43.844Z,23.90
2017-08-14T07:39:11.830Z,25.60
2017-08-14T07:41:39.339Z,24.90
2017-08-14T07:44:06.881Z,24.80
2017-08-14T07:46:34.503Z,26.50
2017-08-14T07:49:02.061Z,25.60
2017-08-14T07:51:29.605Z,25.50
2017-08-14T07:53:57.127Z,25.80
2017-08-14T07:56:24.638Z,26.00
2017-08-14T07:58:52.147Z,24.70
2017-08-14T08:01:19.722Z,24.80
2017-08-14T08:03:47.278Z,24.50
2017-08-14T08:06:14.910Z,25.30
2017-08-14T08:08:42.495Z,23.20
2017-08-14T08:11:10.035Z,24.00
2017-08-14T08:13:37.575Z,24.30
2017-08-14T08:16:05.321Z,23.40
2017-08-14T08:18:32.855Z,23.90
2017-08-14T08:21:00.437Z,23.10
2017-08-14T08:23:28.034Z,22.40
2017-08-14T08:25:55.604Z,22.40
2017-08-14T08:28:23.225Z,22.20
2017-08-14T08:30:50.965Z,22.40
2017-08-14T08:33:18.501Z,22.20
2017-08-14T08:35:48.154Z,23.90
2017-08-14T08:38:15.747Z,23.30
2017-08-14T08:40:43.315Z,21.80
2017-08-14T08:43:10.871Z,21.20
2017-08-14T08:45:38.732Z,23.10
2017-08-14T08:48:06.292Z,22.30
2017-08-14T08:50:34.184Z,21.80
2017-08-14T08:53:01.770Z,22.90
2017-08-14T08:55:29.396Z,23.00
2017-08-14T08:57:57.025Z,21.70
2017-08-14T09:00:24.685Z,23.20
2017-08-14T09:02:52.241Z,23.30
2017-08-14T09:05:19.801Z,23.60
2017-08-14T09:07:47.396Z,23.10
2017-08-14T09:10:14.958Z,23.30
2017-08-14T09:12:42.500Z,21.10
2017-08-14T09:15:10.101Z,23.20
2017-08-14T09:17:37.650Z,22.20
2017-08-14T09:20:05.281Z,23.20
2017-08-14T09:22:32.844Z,22.20
2017-08-14T09:25:00.429Z,22.00
2017-08-14T09:27:27.988Z,23.80
2017-08-14T09:29:55.700Z,23.90
2017-08-14T09:32:23.246Z,24.40
2017-08-14T09:34:50.802Z,26.10
2017-08-14T09:37:18.538Z,27.20
2017-08-14T09:39:46.069Z,30.10
2017-08-14T09:42:13.620Z,33.70
2017-08-14T09:44:41.221Z,36.90
2017-08-14T09:47:08.756Z,38.90
2017-08-14T09:49:36.294Z,36.10
2017-08-14T09:52:03.852Z,31.20
2017-08-14T09:54:31.479Z,30.90
2017-08-14T09:56:59.039Z,33.00
2017-08-14T09:59:26.696Z,35.00
2017-08-14T10:01:54.242Z,30.10
2017-08-14T10:04:21.797Z,27.80
2017-08-14T10:06:49.531Z,27.70
2017-08-14T10:09:17.056Z,30.30
2017-08-14T10:11:44.609Z,29.70
2017-08-14T10:14:12.124Z,29.20
2017-08-14T10:16:39.675Z,27.00
2017-08-14T10:19:07.231Z,24.90
2017-08-14T10:21:34.774Z,27.20
2017-08-14T10:24:02.341Z,29.30
2017-08-14T10:26:29.876Z,31.40
2017-08-14T10:28:57.513Z,28.70
2017-08-14T10:31:25.056Z,28.30
2017-08-14T10:33:52.567Z,28.00
2017-08-14T10:36:20.170Z,26.60
2017-08-14T10:38:47.689Z,25.10
2017-08-14T10:41:15.306Z,22.00
2017-08-14T10:43:42.851Z,24.30
2017-08-14T10:46:10.421Z,26.70
2017-08-14T10:48:37.978Z,27.30
2017-08-14T10:51:05.537Z,25.70
2017-08-14T10:53:33.087Z,26.10
2017-08-14T10:56:00.633Z,24.90
2017-08-14T10:58:28.228Z,24.40
2017-08-14T11:00:55.840Z,23.50
2017-08-14T11:03:23.377Z,23.00
2017-08-14T11:05:50.918Z,23.10
2017-08-14T11:08:18.494Z,24.80
2017-08-14T11:10:46.042Z,23.60
2017-08-14T11:13:13.792Z,23.30
2017-08-14T11:15:41.394Z,23.10
2017-08-14T11:18:08.890Z,23.30
2017-08-14T11:20:36.482Z,24.20
2017-08-14T11:23:04.069Z,25.60
2017-08-14T11:25:31.634Z,26.10
2017-08-14T11:27:59.476Z,24.70
2017-08-14T11:30:27.039Z,24.70
2017-08-14T11:32:54.609Z,24.10
2017-08-14T11:35:22.180Z,24.30
2017-08-14T11:37:49.762Z,22.90
2017-08-14T11:40:17.257Z,23.40
2017-08-14T11:42:44.815Z,23.40
2017-08-14T11:45:15.096Z,23.10
2017-08-14T11:47:42.638Z,24.50
2017-08-14T11:50:10.238Z,26.10
2017-08-14T11:52:37.988Z,27.00
2017-08-14T11:55:05.586Z,28.80
2017-08-14T11:57:33.121Z,31.40
2017-08-14T12:00:00.695Z,33.50
2017-08-14T12:02:28.238Z,35.70
2017-08-14T12:04:55.779Z,38.30
2017-08-14T12:07:23.398Z,38.80
2017-08-14T12:09:50.986Z,39.10
2017-08-14T12:12:18.730Z,40.80
2017-08-14T12:14:46.281Z,42.30
2017-08-14T12:17:13.843Z,40.30
2017-08-14T12:19:41.427Z,41.00
2017-08-14T12:22:08.982Z,40.30
2017-08-14T12:24:36.534Z,38.00
2017-08-14T12:27:04.342Z,39.10
2017-08-14T12:29:31.911Z,38.60
2017-08-14T12:31:59.624Z,41.30
2017-08-14T12:34:27.386Z,40.90
2017-08-14T12:36:54.944Z,40.90
2017-08-14T12:39:22.433Z,42.20
2017-08-14T12:41:50.385Z,42.80
2017-08-14T12:44:17.939Z,42.80
2017-08-14T12:46:45.507Z,44.30
2017-08-14T12:49:13.168Z,44.10
2017-08-14T12:51:40.712Z,42.20
2017-08-14T12:54:08.287Z,42.20
2017-08-14T12:56:36.042Z,43.30
2017-08-14T12:59:03.596Z,43.40
2017-08-14T13:01:31.786Z,41.80
2017-08-14T13:03:59.424Z,41.00
2017-08-14T13:06:27.015Z,40.40
2017-08-14T13:08:54.618Z,39.60
2017-08-14T13:11:22.396Z,39.80
2017-08-14T13:13:49.961Z,39.70
2017-08-14T13:16:17.470Z,40.70
2017-08-14T13:18:45.074Z,41.30
2017-08-14T13:21:12.601Z,40.90
2017-08-14T13:23:40.114Z,42.90
2017-08-14T13:26:07.648Z,42.40
2017-08-14T13:28:35.268Z,42.80
2017-08-14T13:31:02.878Z,43.00
2017-08-14T13:33:30.494Z,42.80
2017-08-14T13:36:01.782Z,42.40
2017-08-14T13:38:29.361Z,43.10
2017-08-14T13:40:57.041Z,42.80
2017-08-14T13:43:24.709Z,42.60
2017-08-14T13:45:52.265Z,43.60
2017-08-14T13:48:19.855Z,42.60
2017-08-14T13:50:47.520Z,41.60
2017-08-14T13:53:15.092Z,40.50
2017-08-14T13:55:42.689Z,40.30
2017-08-14T13:58:10.213Z,41.40
2017-08-14T14:00:37.813Z,39.60
2017-08-14T14:03:05.554Z,40.20
2017-08-14T14:05:33.066Z,40.30
2017-08-14T14:08:00.624Z,40.10
2017-08-14T14:10:28.371Z,40.90
2017-08-14T14:12:55.927Z,42.60
2017-08-14T14:15:24.159Z,40.00
2017-08-14T14:17:51.740Z,42.10
2017-08-14T14:20:19.298Z,41.70
2017-08-14T14:22:46.831Z,42.30
2017-08-14T14:25:14.408Z,40.90
2017-08-14T14:27:41.996Z,40.80
2017-08-14T14:30:09.537Z,42.60
2017-08-14T14:32:37.293Z,44.00
2017-08-14T14:35:04.897Z,43.60
2017-08-14T14:37:32.457Z,44.00
2017-08-14T14:40:00.051Z,44.30
2017-08-14T14:42:27.936Z,44.80
2017-08-14T14:44:55.670Z,43.30
2017-08-14T14:47:23.249Z,44.20
2017-08-14T14:49:50.845Z,44.20
2017-08-14T14:52:18.479Z,43.60
2017-08-14T14:54:47.048Z,44.20
2017-08-14T14:57:14.605Z,45.20
2017-08-14T14:59:42.594Z,45.50
2017-08-14T15:02:11.688Z,46.50
2017-08-14T15:04:39.278Z,47.80
2017-08-14T15:07:06.817Z,47.30
2017-08-14T15:09:35.508Z,47.50
2017-08-14T15:12:03.055Z,48.00
2017-08-14T15:14:31.435Z,47.20
2017-08-14T15:16:59.552Z,48.00
2017-08-14T15:19:28.670Z,47.70
2017-08-14T15:21:56.213Z,47.90
2017-08-14T15:24:23.916Z,47.20
2017-08-14T15:26:51.466Z,48.00
2017-08-14T15:29:18.982Z,48.50
2017-08-14T15:31:46.568Z,48.80
2017-08-14T15:34:14.136Z,50.70
2017-08-14T15:36:41.656Z,50.40
2017-08-14T15:39:09.456Z,51.70
2017-08-14T15:41:37.009Z,51.20
2017-08-14T15:44:04.579Z,52.30
2017-08-14T15:46:32.243Z,53.00
2017-08-14T15:48:59.863Z,53.00
2017-08-14T15:51:27.435Z,51.80
2017-08-14T15:53:55.417Z,51.10
2017-08-14T15:56:23.019Z,51.30
2017-08-14T15:58:50.505Z,50.60
2017-08-14T16:01:18.342Z,50.50
2017-08-14T16:03:45.981Z,49.40
2017-08-14T16:06:14.332Z,47.60
2017-08-14T16:08:42.072Z,48.40
2017-08-14T16:11:09.710Z,47.30
2017-08-14T16:13:37.257Z,47.80
2017-08-14T16:16:04.914Z,47.60
2017-08-14T16:18:32.484Z,47.60
2017-08-14T16:21:00.076Z,47.50
2017-08-14T16:23:27.651Z,48.30
2017-08-14T16:25:55.190Z,49.40
2017-08-14T16:28:22.752Z,50.50
2017-08-14T16:30:50.406Z,51.60
2017-08-14T16:33:17.953Z,53.10
2017-08-14T16:35:45.597Z,54.00
2017-08-14T16:38:13.268Z,54.90
2017-08-14T16:40:42.994Z,55.80
2017-08-14T16:43:10.717Z,55.90
2017-08-14T16:45:38.340Z,56.30
2017-08-14T16:48:05.980Z,57.00
2017-08-14T16:50:33.569Z,57.70
2017-08-14T16:53:01.202Z,58.20
2017-08-14T16:55:28.763Z,58.40
2017-08-14T16:57:56.453Z,58.90
2017-08-14T17:00:24.020Z,59.70
2017-08-14T17:02:52.864Z,60.40
2017-08-14T17:05:20.424Z,60.40
2017-08-14T17:07:47.999Z,60.80
2017-08-14T17:10:15.558Z,61.10
2017-08-14T17:12:43.175Z,60.80
2017-08-14T17:15:11.469Z,61.40
2017-08-14T17:17:39.180Z,61.10
2017-08-14T17:20:06.771Z,61.90
2017-08-14T17:22:34.469Z,61.90
2017-08-14T17:25:03.232Z,61.80
2017-08-14T17:27:31.628Z,61.90
2017-08-14T17:30:00.159Z,62.70
2017-08-14T17:32:27.775Z,63.30
2017-08-14T17:34:55.301Z,64.40
2017-08-14T17:37:22.936Z,63.60
2017-08-14T17:39:50.559Z,63.80
2017-08-14T17:42:18.219Z,64.30
2017-08-14T17:44:45.963Z,64.40
2017-08-14T17:47:13.663Z,65.40
2017-08-14T17:49:41.257Z,66.00
2017-08-14T17:52:08.915Z,66.20
2017-08-14T17:54:36.620Z,66.50
2017-08-14T17:57:04.235Z,67.00
2017-08-14T17:59:32.098Z,67.90
2017-08-14T18:01:59.689Z,68.20
2017-08-14T18:04:27.299Z,68.90
2017-08-14T18:06:54.926Z,69.90
2017-08-14T18:09:22.605Z,70.80
2017-08-14T18:11:50.176Z,71.50
2017-08-14T18:14:18.035Z,72.60
2017-08-14T18:16:45.662Z,74.00
2017-08-14T18:19:13.225Z,74.60
2017-08-14T18:21:40.815Z,76.10
2017-08-14T18:24:08.409Z,78.00
2017-08-14T18:26:35.975Z,78.80
2017-08-14T18:29:03.832Z,80.00
2017-08-14T18:31:31.408Z,81.60
2017-08-14T18:33:58.932Z,81.50
2017-08-14T18:36:26.558Z,83.20
2017-08-14T18:38:54.114Z,84.40
2017-08-14T18:41:21.701Z,84.80
2017-08-14T18:43:49.403Z,86.00
2017-08-14T18:46:17.012Z,86.40
2017-08-14T18:48:44.594Z,87.10
2017-08-14T18:51:12.178Z,87.80
2017-08-14T18:53:39.745Z,88.20
2017-08-14T18:56:07.322Z,89.20
2017-08-14T18:58:35.067Z,89.20
2017-08-14T19:01:02.694Z,90.10
2017-08-14T19:03:30.304Z,90.00
2017-08-14T19:05:58.166Z,90.00
2017-08-14T19:08:27.728Z,90.40
2017-08-14T19:10:53.513Z,90.50
2017-08-14T19:13:21.107Z,90.80
2017-08-14T19:15:48.710Z,90.70
2017-08-14T19:18:16.301Z,91.00
2017-08-14T19:20:44.459Z,91.10
2017-08-14T19:23:13.238Z,91.10
2017-08-14T19:25:41.815Z,91.10
2017-08-14T19:28:09.551Z,91.00
2017-08-14T19:30:37.109Z,91.20
2017-08-14T19:33:04.879Z,91.30
2017-08-14T19:35:33.459Z,91.60
2017-08-14T19:38:02.047Z,91.70
2017-08-14T19:40:29.651Z,91.70
2017-08-14T19:42:57.345Z,91.40
2017-08-14T19:45:25.999Z,92.00
2017-08-14T19:47:53.588Z,92.10
2017-08-14T19:50:21.239Z,92.10
2017-08-14T19:52:48.891Z,92.10
2017-08-14T19:55:16.490Z,91.40
2017-08-14T19:57:44.420Z,90.80
2017-08-14T20:00:12.364Z,90.60
2017-08-14T20:02:40.295Z,90.60
2017-08-14T20:05:08.074Z,90.70
2017-08-14T20:07:35.678Z,90.80
2017-08-14T20:10:03.367Z,90.60
2017-08-14T20:12:31.014Z,90.90
2017-08-14T20:14:58.610Z,91.20
2017-08-14T20:17:26.224Z,91.40
2017-08-14T20:19:54.078Z,91.50
2017-08-14T20:22:22.662Z,91.80
2017-08-14T20:24:50.205Z,91.70
2017-08-14T20:27:17.862Z,92.10
2017-08-14T20:29:45.501Z,92.30
2017-08-14T20:32:15.350Z,92.10
2017-08-14T20:34:43.987Z,91.90
2017-08-14T20:37:13.671Z,92.10
2017-08-14T20:39:42.060Z,92.30
2017-08-14T20:42:11.115Z,92.50
2017-08-14T20:44:39.811Z,92.50
2017-08-14T20:47:08.583Z,92.50
2017-08-14T20:49:37.378Z,92.40
2017-08-14T20:52:04.956Z,92.60
2017-08-14T20:54:33.468Z,92.80
2017-08-14T20:57:01.282Z,92.60
2017-08-14T20:59:28.905Z,92.40
2017-08-14T21:01:56.530Z,92.60
2017-08-14T21:04:24.321Z,92.60
2017-08-14T21:06:51.864Z,92.40
2017-08-14T21:09:19.557Z,92.50
2017-08-14T21:11:47.207Z,92.60
2017-08-14T21:14:14.801Z,92.50
2017-08-14T21:16:42.366Z,92.50
2017-08-14T21:19:09.958Z,92.00
2017-08-14T21:21:37.527Z,91.90
2017-08-14T21:24:05.220Z,92.10
2017-08-14T21:26:32.910Z,92.30
2017-08-14T21:29:00.398Z,92.70
2017-08-14T21:31:27.948Z,93.10
2017-08-14T21:33:55.511Z,93.30
2017-08-14T21:36:23.080Z,93.70
2017-08-14T21:38:50.645Z,93.90
2017-08-14T21:41:18.448Z,93.90
2017-08-14T21:43:46.016Z,93.90
2017-08-14T21:46:13.702Z,94.10
2017-08-14T21:48:41.280Z,94.20
2017-08-14T21:51:08.815Z,94.30
2017-08-14T21:53:36.321Z,94.20
2017-08-14T21:56:03.910Z,94.10
2017-08-14T21:58:31.421Z,94.10
2017-08-14T22:00:58.996Z,94.10
2017-08-14T22:03:26.574Z,94.30
2017-08-14T22:05:54.045Z,94.40
2017-08-14T22:08:21.638Z,94.40
2017-08-14T22:10:49.159Z,94.40
2017-08-14T22:13:16.708Z,94.50
2017-08-14T22:15:44.253Z,94.60
2017-08-14T22:18:11.778Z,94.60
2017-08-14T22:20:39.396Z,94.50
2017-08-14T22:23:06.927Z,94.60
2017-08-14T22:25:34.456Z,94.80
2017-08-14T22:28:01.977Z,95.00
2017-08-14T22:30:29.531Z,95.10
2017-08-14T22:32:57.067Z,95.20
2017-08-14T22:35:24.625Z,95.10
2017-08-14T22:37:52.158Z,95.20
2017-08-14T22:40:19.892Z,95.10
2017-08-14T22:42:47.412Z,95.00
2017-08-14T22:45:14.955Z,95.10
2017-08-14T22:47:42.683Z,95.40
2017-08-14T22:50:10.202Z,95.90
2017-08-14T22:52:37.742Z,96.00
2017-08-14T22:55:05.422Z,95.70
2017-08-14T22:57:32.986Z,95.60
2017-08-14T23:00:00.481Z,95.70
2017-08-14T23:02:28.049Z,95.60
2017-08-14T23:04:55.638Z,95.90
2017-08-14T23:07:23.195Z,95.60
2017-08-14T23:09:50.778Z,95.30
2017-08-14T23:12:18.328Z,95.40
2017-08-14T23:14:45.871Z,95.40
2017-08-14T23:17:13.436Z,95.70
2017-08-14T23:19:40.982Z,95.90
2017-08-14T23:22:08.524Z,95.90
2017-08-14T23:24:36.053Z,95.70
2017-08-14T23:27:03.606Z,95.70
2017-08-14T23:29:31.125Z,95.60
2017-08-14T23:31:58.847Z,95.70
2017-08-14T23:34:26.405Z,95.70
2017-08-14T23:36:53.939Z,95.50
2017-08-14T23:39:21.658Z,95.40
2017-08-14T23:41:49.187Z,95.40
2017-08-14T23:44:16.722Z,95.50
2017-08-14T23:46:44.321Z,95.30
2017-08-14T23:49:11.901Z,95.30
2017-08-14T23:51:39.451Z,95.20
2017-08-14T23:54:07.054Z,95.20
2017-08-14T23:56:34.611Z,95.00
2017-08-14T23:59:02.110Z,95.00
